Time;durP1;ratioP1;P1;durP2;ratioP2;P2;SDS_P1;SDS_P2;PMS_P1;PMS_P2;Temp;Humidity;BMP_temperature;BMP_pressure;BME280_temperature;BME280_humidity;BME280_pressure;Samples;Min_cycle;Max_cycle;Signal;HPM_P1;HPM_P2
2022/09/12 00:01:35;;;;;;;10.13;3.83;;;;;;;15.30;100.00;100062.84;4974037;28;20046;-83
2022/09/12 00:04:02;;;;;;;10.30;3.50;;;;;;;15.13;100.00;100030.53;4991649;28;20050;-84
2022/09/12 00:06:31;;;;;;;12.57;4.13;;;;;;;15.21;100.00;100040.56;4986540;28;20047;-83
2022/09/12 00:09:02;;;;;;;10.38;3.55;;;;;;;15.50;100.00;100053.53;4990763;28;20456;-83
2022/09/12 00:11:30;;;;;;;8.27;2.88;;;;;;;15.60;100.00;100078.34;4974501;28;20043;-83
2022/09/12 00:13:59;;;;;;;10.02;2.92;;;;;;;15.49;100.00;100044.78;4992114;28;20051;-83
2022/09/12 00:16:29;;;;;;;12.70;2.60;;;;;;;15.57;100.00;100046.91;4990307;28;20100;-83
2022/09/12 00:18:56;;;;;;;9.13;2.60;;;;;;;15.29;100.00;99989.94;4984569;28;20054;-83
2022/09/12 00:21:24;;;;;;;8.70;2.80;;;;;;;15.56;100.00;100034.63;4991689;28;20046;-83
2022/09/12 00:23:51;;;;;;;16.23;3.40;;;;;;;15.53;100.00;100040.16;4974930;28;20050;-83
2022/09/12 00:26:19;;;;;;;8.45;2.70;;;;;;;15.62;100.00;100028.94;4974922;28;20050;-83
2022/09/12 00:28:47;;;;;;;9.55;3.13;;;;;;;15.54;100.00;100018.06;4971666;28;20405;-84
2022/09/12 00:31:17;;;;;;;12.52;2.85;;;;;;;16.01;100.00;100061.44;4991755;28;20567;-83
2022/09/12 00:33:44;;;;;;;7.18;2.60;;;;;;;15.79;100.00;99996.09;4991543;28;20070;-83
2022/09/12 00:36:14;;;;;;;9.82;2.83;;;;;;;15.72;100.00;99987.78;4982369;28;20061;-83
2022/09/12 00:38:42;;;;;;;9.45;2.38;;;;;;;15.86;100.00;100010.56;4969259;28;20097;-83
2022/09/12 00:41:16;;;;;;;14.60;4.35;;;;;;;15.68;100.00;100033.78;4991423;28;20113;-83
2022/09/12 00:43:47;;;;;;;13.00;3.40;;;;;;;15.77;100.00;99968.97;4990854;28;20128;-83
2022/09/12 00:46:19;;;;;;;10.93;3.60;;;;;;;15.85;100.00;99994.84;4975077;28;20504;-83
2022/09/12 00:48:59;;;;;;;9.93;3.97;;;;;;;15.97;100.00;99991.34;4969870;28;20061;-83
2022/09/12 00:51:29;;;;;;;14.35;6.43;;;;;;;15.84;100.00;99961.47;4977042;28;20121;-83
2022/09/12 00:53:59;;;;;;;19.10;5.65;;;;;;;16.23;100.00;99999.16;4994650;28;20042;-82
2022/09/12 00:56:26;;;;;;;16.85;6.32;;;;;;;15.73;100.00;99927.91;4994814;28;20097;-83
2022/09/12 00:59:01;;;;;;;24.38;8.60;;;;;;;16.07;100.00;99928.13;4981708;28;20058;-83
2022/09/12 01:01:28;;;;;;;17.77;7.55;;;;;;;16.39;100.00;99962.72;4971395;28;20093;-83
2022/09/12 01:03:59;;;;;;;14.93;7.15;;;;;;;16.40;100.00;99934.53;4976255;28;20773;-82
2022/09/12 01:06:48;;;;;;;13.55;5.95;;;;;;;16.04;100.00;99880.81;4991622;28;20050;-83
2022/09/12 01:09:18;;;;;;;17.27;8.48;;;;;;;16.73;100.00;99983.97;4995138;28;20113;-83
2022/09/12 01:11:47;;;;;;;21.10;8.70;;;;;;;16.57;100.00;99975.50;4995804;28;20057;-85
2022/09/12 01:14:15;;;;;;;22.08;9.88;;;;;;;16.43;100.00;99937.78;4981180;28;20405;-84
2022/09/12 01:16:44;;;;;;;17.27;7.72;;;;;;;17.02;100.00;99973.03;4994823;28;20053;-84
2022/09/12 01:19:48;;;;;;;20.10;9.48;;;;;;;16.78;100.00;99962.47;4992478;28;20073;-84
2022/09/12 01:22:24;;;;;;;25.92;10.30;;;;;;;16.72;100.00;99968.25;4982804;28;20504;-84
2022/09/12 01:24:53;;;;;;;19.40;9.60;;;;;;;16.59;100.00;99955.97;4995300;28;20050;-83
2022/09/12 01:27:35;;;;;;;21.63;10.20;;;;;;;16.24;100.00;99898.66;4972655;28;20485;-83
2022/09/12 01:30:39;;;;;;;30.25;11.90;;;;;;;16.42;100.00;99945.81;4976631;28;20054;-84
2022/09/12 01:33:27;;;;;;;22.15;9.20;;;;;;;16.59;100.00;99936.59;4994341;28;20061;-85
2022/09/12 01:36:33;;;;;;;19.23;8.13;;;;;;;16.42;100.00;99890.31;4986342;28;20050;-84
2022/09/12 01:39:04;;;;;;;20.85;9.20;;;;;;;16.57;100.00;99947.28;4957782;28;20061;-84
2022/09/12 01:41:51;;;;;;;24.40;8.73;;;;;;;16.30;100.00;99869.16;4975133;28;20148;-84
2022/09/12 01:44:44;;;;;;;25.65;10.15;;;;;;;16.66;100.00;99940.47;4984252;28;20047;-83
2022/09/12 01:47:40;;;;;;;22.67;9.05;;;;;;;16.30;100.00;99902.66;4990124;28;20171;-84
2022/09/12 01:50:15;;;;;;;24.42;9.68;;;;;;;16.43;100.00;99935.13;4989904;28;20100;-84
2022/09/12 01:53:34;;;;;;;23.10;10.90;;;;;;;16.29;100.00;99854.28;4975831;28;20481;-83
2022/09/12 01:56:13;;;;;;;26.33;10.82;;;;;;;16.05;100.00;99842.91;4978841;28;20054;-84
2022/09/12 01:58:52;;;;;;;24.92;9.07;;;;;;;16.72;100.00;99918.88;4959749;28;20050;-84
2022/09/12 02:01:46;;;;;;;20.05;8.93;;;;;;;16.68;100.00;99891.81;4972600;28;20102;-84
2022/09/12 02:04:17;;;;;;;20.25;9.30;;;;;;;16.73;100.00;99919.69;4962266;28;20042;-84
2022/09/12 02:06:56;;;;;;;16.42;7.82;;;;;;;16.79;100.00;99913.97;4987410;28;20035;-84
2022/09/12 02:09:38;;;;;;;16.23;8.27;;;;;;;16.91;100.00;99909.53;4988387;28;20054;-84
2022/09/12 02:12:10;;;;;;;11.52;6.40;;;;;;;16.93;100.00;99876.75;4993665;28;20074;-84
2022/09/12 02:14:43;;;;;;;14.60;6.25;;;;;;;16.92;100.00;99867.13;4976776;28;20054;-84
2022/09/12 02:17:14;;;;;;;23.13;10.05;;;;;;;16.50;100.00;99828.03;4959761;28;20047;-85
2022/09/12 02:19:50;;;;;;;13.57;5.32;;;;;;;16.68;100.00;99817.00;4969521;28;20046;-84
2022/09/12 02:22:21;;;;;;;16.35;8.43;;;;;;;16.70;100.00;99842.31;4976746;28;20559;-85
2022/09/12 02:24:52;;;;;;;15.60;6.53;;;;;;;16.72;100.00;99822.88;4976972;28;20708;-85
2022/09/12 02:27:22;;;;;;;13.20;6.38;;;;;;;16.83;100.00;99847.53;4989918;28;20457;-85
2022/09/12 02:29:49;;;;;;;15.85;5.47;;;;;;;16.86;100.00;99825.31;4993497;28;20058;-85
2022/09/12 02:32:25;;;;;;;12.48;4.97;;;;;;;16.90;100.00;99826.75;4975847;28;20062;-85
2022/09/12 02:35:06;;;;;;;11.73;6.03;;;;;;;17.22;100.00;99874.44;4988641;28;20054;-84
2022/09/12 02:37:41;;;;;;;13.70;5.35;;;;;;;17.13;100.00;99871.69;4961969;28;20405;-84
2022/09/12 02:40:08;;;;;;;12.57;6.47;;;;;;;16.92;100.00;99810.75;4979462;28;20130;-85
2022/09/12 02:42:36;;;;;;;11.73;4.07;;;;;;;17.05;100.00;99816.75;4976654;28;20054;-84
2022/09/12 02:45:04;;;;;;;12.68;6.05;;;;;;;17.02;100.00;99817.00;4993335;28;20050;-84
2022/09/12 02:47:46;;;;;;;10.77;4.30;;;;;;;17.35;100.00;99865.53;4971166;28;20500;-84
2022/09/12 02:50:13;;;;;;;9.60;4.27;;;;;;;17.42;100.00;99864.06;4975856;28;20054;-85
2022/09/12 02:52:41;;;;;;;9.02;3.40;;;;;;;16.86;100.00;99786.50;4976138;28;20054;-85
2022/09/12 02:55:10;;;;;;;10.90;4.50;;;;;;;17.18;100.00;99835.97;4975019;28;20092;-84
2022/09/12 02:57:37;;;;;;;7.93;3.30;;;;;;;17.08;100.00;99809.41;4986225;28;20047;-84
2022/09/12 03:00:06;;;;;;;10.20;4.30;;;;;;;16.76;100.00;99735.28;4966868;28;20400;-84
2022/09/12 03:03:19;;;;;;;9.20;4.22;;;;;;;17.01;100.00;99779.13;4982076;28;20452;-84
2022/09/12 03:05:51;;;;;;;8.00;3.40;;;;;;;16.85;100.00;99762.81;4932112;28;20100;-85
2022/09/12 03:08:27;;;;;;;7.03;2.67;;;;;;;17.46;100.00;99839.06;4964902;28;20108;-84
2022/09/12 03:11:12;;;;;;;9.95;3.58;;;;;;;17.41;100.00;99828.00;4981403;28;20051;-84
2022/09/12 03:13:45;;;;;;;8.60;2.88;;;;;;;17.32;100.00;99821.66;4973466;28;20105;-84
2022/09/12 03:16:30;;;;;;;6.90;2.60;;;;;;;17.42;100.00;99832.31;4956107;28;20055;-85
2022/09/12 03:19:19;;;;;;;7.47;2.75;;;;;;;17.40;100.00;99823.69;4990207;28;20050;-84
2022/09/12 03:22:27;;;;;;;8.60;2.97;;;;;;;17.38;100.00;99818.50;4992582;28;20054;-84
2022/09/12 03:25:13;;;;;;;5.15;2.05;;;;;;;17.03;100.00;99771.06;4975788;28;20512;-85
2022/09/12 03:28:05;;;;;;;5.60;1.90;;;;;;;17.04;100.00;99759.56;4978705;28;20047;-84
2022/09/12 03:30:40;;;;;;;7.55;2.65;;;;;;;16.96;100.00;99762.78;4992140;28;20780;-85
2022/09/12 03:33:10;;;;;;;6.38;2.55;;;;;;;16.96;100.00;99780.47;4992477;28;20042;-84
2022/09/12 03:35:37;;;;;;;7.00;2.70;;;;;;;16.80;100.00;99765.81;4992749;28;20046;-84
2022/09/12 03:38:06;;;;;;;5.20;1.92;;;;;;;17.01;100.00;99813.50;4964380;28;20070;-85
2022/09/12 03:40:34;;;;;;;7.13;2.25;;;;;;;17.15;100.00;99830.09;4982099;28;20046;-84
2022/09/12 03:43:02;;;;;;;5.03;1.90;;;;;;;16.79;100.00;99777.34;4961585;28;20147;-83
2022/09/12 03:45:29;;;;;;;7.03;2.47;;;;;;;17.09;100.00;99823.50;4987843;28;20096;-84
2022/09/12 03:47:57;;;;;;;6.75;2.10;;;;;;;16.98;100.00;99818.19;4991466;28;20050;-84
2022/09/12 03:50:24;;;;;;;7.53;2.30;;;;;;;16.60;100.00;99767.34;4974634;28;20046;-84
2022/09/12 03:52:51;;;;;;;12.07;2.75;;;;;;;16.71;100.00;99795.59;4975112;28;20540;-84
2022/09/12 03:55:18;;;;;;;5.70;2.10;;;;;;;16.73;100.00;99791.00;4975285;28;20049;-84
2022/09/12 03:57:45;;;;;;;4.53;1.85;;;;;;;16.78;100.00;99788.84;4974835;28;20077;-84
2022/09/12 04:00:12;;;;;;;5.50;2.35;;;;;;;16.56;100.00;99773.84;4974521;28;20101;-84
2022/09/12 04:02:45;;;;;;;6.82;2.80;;;;;;;16.51;100.00;99758.34;4975717;28;20408;-84
2022/09/12 04:05:12;;;;;;;5.22;2.00;;;;;;;16.60;100.00;99775.28;4988429;28;20085;-84
2022/09/12 04:07:38;;;;;;;7.82;2.03;;;;;;;16.48;100.00;99745.41;4966808;28;20481;-84
2022/09/12 04:10:06;;;;;;;5.43;1.98;;;;;;;16.76;100.00;99787.31;4987091;28;20412;-84
2022/09/12 04:12:34;;;;;;;5.38;1.88;;;;;;;16.70;100.00;99783.34;4975306;28;20061;-84
2022/09/12 04:15:01;;;;;;;5.20;1.80;;;;;;;16.65;100.00;99775.78;4974532;28;20485;-85
2022/09/12 04:17:28;;;;;;;6.53;2.05;;;;;;;16.68;100.00;99778.19;4978552;28;20054;-84
2022/09/12 04:19:54;;;;;;;4.38;1.55;;;;;;;16.76;100.00;99787.31;4975587;28;20101;-84
2022/09/12 04:22:21;;;;;;;3.47;1.50;;;;;;;16.68;100.00;99772.06;4996286;28;20093;-84
2022/09/12 04:24:48;;;;;;;3.72;1.40;;;;;;;16.92;100.00;99794.91;4995690;28;20459;-85
2022/09/12 04:27:14;;;;;;;5.78;1.90;;;;;;;16.50;100.00;99775.19;4974936;28;20055;-85
2022/09/12 04:29:41;;;;;;;3.95;1.50;;;;;;;16.65;100.00;99767.00;4980312;28;20077;-84
2022/09/12 04:32:08;;;;;;;2.35;1.13;;;;;;;16.52;100.00;99757.41;4991932;28;20054;-84
2022/09/12 04:34:35;;;;;;;5.63;1.20;;;;;;;16.91;100.00;99814.34;4978184;28;20109;-85
2022/09/12 04:37:01;;;;;;;3.00;1.35;;;;;;;16.63;100.00;99771.56;4976089;28;20054;-84
2022/09/12 04:39:28;;;;;;;3.92;1.20;;;;;;;16.61;100.00;99789.31;4974604;28;20157;-85
2022/09/12 04:41:55;;;;;;;2.15;1.10;;;;;;;16.56;100.00;99775.66;4995423;28;20069;-84
2022/09/12 04:44:22;;;;;;;3.95;1.20;;;;;;;16.51;100.00;99797.16;4995747;28;20047;-84
2022/09/12 04:46:48;;;;;;;4.68;1.27;;;;;;;16.09;100.00;99752.75;4991383;28;20055;-84
2022/09/12 04:49:16;;;;;;;4.60;1.30;;;;;;;16.16;100.00;99763.72;4978087;28;20104;-84
2022/09/12 04:51:43;;;;;;;3.30;1.33;;;;;;;16.18;100.00;99776.78;4995311;28;20109;-84
2022/09/12 04:54:12;;;;;;;2.08;1.15;;;;;;;16.22;100.00;99788.81;4995187;28;20046;-84
2022/09/12 04:56:41;;;;;;;3.95;1.52;;;;;;;15.87;100.00;99782.59;4974738;28;20089;-84
2022/09/12 04:59:09;;;;;;;2.30;1.02;;;;;;;15.85;100.00;99776.59;4994458;28;20464;-84
2022/09/12 05:01:36;;;;;;;1.98;0.90;;;;;;;15.98;100.00;99767.75;4978058;28;20054;-84
2022/09/12 05:04:03;;;;;;;3.17;1.08;;;;;;;16.33;100.00;99855.72;4977054;28;20089;-85
2022/09/12 05:06:33;;;;;;;2.47;1.10;;;;;;;15.91;100.00;99770.00;4977008;28;20054;-83
2022/09/12 05:09:01;;;;;;;1.33;0.82;;;;;;;16.21;100.00;99830.22;4965628;28;20408;-83
2022/09/12 05:11:31;;;;;;;2.45;1.10;;;;;;;15.94;100.00;99806.75;4977486;28;20061;-83
2022/09/12 05:14:18;;;;;;;1.58;0.90;;;;;;;16.11;100.00;99834.50;4971201;28;20082;-82
2022/09/12 05:16:45;;;;;;;2.33;0.93;;;;;;;16.04;100.00;99835.94;4972886;28;20102;-84
2022/09/12 05:19:16;;;;;;;2.30;1.00;;;;;;;15.71;100.00;99787.31;4989260;28;20054;-83
2022/09/12 05:21:42;;;;;;;0.95;0.73;;;;;;;15.94;100.00;99809.38;4968975;28;20050;-83
2022/09/12 05:24:10;;;;;;;0.98;0.80;;;;;;;16.06;100.00;99832.22;4973526;28;20113;-84
2022/09/12 05:26:37;;;;;;;2.58;1.23;;;;;;;15.86;100.00;99802.03;4985990;28;20046;-84
2022/09/12 05:29:04;;;;;;;1.80;0.90;;;;;;;15.65;100.00;99799.16;4983298;28;20062;-84
2022/09/12 05:31:31;;;;;;;2.53;1.08;;;;;;;16.12;100.00;99859.97;4988332;28;20054;-84
2022/09/12 05:33:58;;;;;;;1.60;0.90;;;;;;;15.73;100.00;99811.78;4973865;28;20050;-84
2022/09/12 05:36:28;;;;;;;2.20;0.85;;;;;;;15.49;100.00;99796.81;4972840;28;20050;-84
2022/09/12 05:38:55;;;;;;;1.38;0.80;;;;;;;15.47;100.00;99803.97;4968179;28;20062;-84
2022/09/12 05:41:25;;;;;;;4.28;1.00;;;;;;;15.39;100.00;99798.44;4990206;28;20054;-84
2022/09/12 05:43:56;;;;;;;1.65;0.80;;;;;;;15.52;100.00;99824.75;4989441;28;20054;-84
2022/09/12 05:46:49;;;;;;;1.55;0.90;;;;;;;15.33;100.00;99809.41;4988370;28;20053;-83
2022/09/12 05:49:16;;;;;;;2.03;0.90;;;;;;;15.36;100.00;99831.13;4974326;28;20054;-83
2022/09/12 05:51:44;;;;;;;1.00;0.80;;;;;;;15.70;100.00;99886.72;4975701;28;20049;-84
2022/09/12 05:54:17;;;;;;;3.10;0.85;;;;;;;15.36;100.00;99861.94;4988363;28;20057;-83
2022/09/12 05:56:44;;;;;;;1.48;0.90;;;;;;;15.08;100.00;99799.78;4987958;28;20476;-83
2022/09/12 05:59:17;;;;;;;3.05;1.10;;;;;;;15.56;100.00;99895.66;4974226;28;20046;-83
2022/09/12 06:01:45;;;;;;;2.70;0.90;;;;;;;14.87;100.00;99794.25;4989165;28;20823;-83
2022/09/12 06:04:12;;;;;;;1.92;0.90;;;;;;;15.18;100.00;99832.47;4993116;28;20081;-84
2022/09/12 06:06:42;;;;;;;3.63;0.95;;;;;;;15.27;100.00;99837.06;4993319;28;20101;-82
2022/09/12 06:09:09;;;;;;;1.70;0.90;;;;;;;15.27;100.00;99841.50;4988255;28;20050;-83
2022/09/12 06:11:37;;;;;;;1.92;0.90;;;;;;;15.16;100.00;99835.19;4974632;28;20046;-82
2022/09/12 06:14:04;;;;;;;1.23;0.90;;;;;;;15.47;100.00;99853.25;4994267;28;20054;-83
2022/09/12 06:16:33;;;;;;;2.15;1.00;;;;;;;15.59;100.00;99886.69;4994461;28;20050;-83
2022/09/12 06:19:02;;;;;;;2.33;0.90;;;;;;;15.60;100.00;99864.63;4973916;28;20104;-83
2022/09/12 06:21:30;;;;;;;3.38;1.00;;;;;;;15.50;100.00;99845.13;4993727;28;20050;-83
2022/09/12 06:23:57;;;;;;;1.85;0.90;;;;;;;15.26;100.00;99824.00;4993752;28;20057;-83
2022/09/12 06:26:24;;;;;;;1.38;0.85;;;;;;;15.46;100.00;99862.16;4971070;28;20061;-83
2022/09/12 06:28:53;;;;;;;2.58;1.10;;;;;;;15.49;100.00;99878.59;4976362;28;20054;-82
2022/09/12 06:31:24;;;;;;;2.20;0.80;;;;;;;15.63;100.00;99903.97;4976861;28;20117;-83
2022/09/12 06:33:52;;;;;;;1.13;0.88;;;;;;;15.28;100.00;99853.72;4993847;28;20057;-83
2022/09/12 06:36:26;;;;;;;1.15;0.77;;;;;;;15.51;100.00;99837.13;4976195;28;21609;-83
2022/09/12 06:39:01;;;;;;;2.80;0.85;;;;;;;15.43;100.00;99820.16;4988528;28;20093;-83
2022/09/12 06:41:30;;;;;;;2.35;1.00;;;;;;;15.73;100.00;99868.03;4976491;28;20062;-83
2022/09/12 06:43:57;;;;;;;2.78;0.90;;;;;;;15.66;100.00;99845.69;4991288;28;20058;-82
2022/09/12 06:46:25;;;;;;;2.10;1.10;;;;;;;15.66;100.00;99852.78;4977011;28;20054;-83
2022/09/12 06:48:54;;;;;;;2.00;0.98;;;;;;;15.59;100.00;99836.53;4976112;28;20456;-83
2022/09/12 06:51:21;;;;;;;1.92;0.90;;;;;;;16.09;100.00;99876.88;4974299;28;20489;-82
2022/09/12 06:53:48;;;;;;;2.80;0.98;;;;;;;15.72;100.00;99837.34;4991467;28;20050;-83
2022/09/12 06:56:18;;;;;;;1.40;0.80;;;;;;;15.88;100.00;99839.72;4973869;28;20050;-83
2022/09/12 06:58:46;;;;;;;2.00;0.80;;;;;;;16.02;100.00;99870.34;4987949;28;20494;-83
2022/09/12 07:01:25;;;;;;;1.60;0.82;;;;;;;15.81;100.00;99856.97;4992946;28;20082;-83
2022/09/12 07:03:54;;;;;;;3.17;0.80;;;;;;;16.06;100.00;99852.50;4988914;28;20482;-83
2022/09/12 07:06:23;;;;;;;1.33;0.70;;;;;;;16.20;100.00;99854.09;4968281;28;20118;-83
2022/09/12 07:08:50;;;;;;;1.58;0.80;;;;;;;16.75;100.00;99879.00;4974412;28;20101;-83
2022/09/12 07:11:18;;;;;;;1.70;0.80;;;;;;;17.35;100.00;99892.00;4988471;28;20050;-83
2022/09/12 07:13:49;;;;;;;1.17;0.70;;;;;;;17.50;100.00;99872.25;4973521;28;20054;-83
2022/09/12 07:16:16;;;;;;;1.70;0.70;;;;;;;17.33;100.00;99843.66;4993972;28;20546;-82
2022/09/12 07:18:56;;;;;;;0.82;0.68;;;;;;;17.54;100.00;99878.97;4987926;28;20054;-83
2022/09/12 07:21:24;;;;;;;1.77;0.80;;;;;;;18.20;100.00;99896.59;4969716;28;20711;-83
2022/09/12 07:23:50;;;;;;;1.45;0.73;;;;;;;17.75;100.00;99872.91;4971002;28;20452;-82
2022/09/12 07:26:17;;;;;;;0.90;0.60;;;;;;;17.42;100.00;99859.66;4989744;28;20439;-83
2022/09/12 07:28:44;;;;;;;1.92;0.80;;;;;;;17.69;100.00;99889.28;4990657;28;20485;-83
2022/09/12 07:31:16;;;;;;;1.13;0.60;;;;;;;17.20;100.00;99859.66;4991152;28;20057;-83
2022/09/12 07:33:43;;;;;;;2.85;0.70;;;;;;;17.19;100.00;99882.66;4991599;28;20548;-83
2022/09/12 07:36:13;;;;;;;1.38;0.77;;;;;;;17.26;100.00;99886.50;4976058;28;20093;-83
2022/09/12 07:38:40;;;;;;;1.13;0.70;;;;;;;17.78;100.00;99868.22;4978359;28;20051;-83
2022/09/12 07:41:12;;;;;;;2.22;0.88;;;;;;;18.31;100.00;99901.88;4980082;28;20053;-83
2022/09/12 07:43:39;;;;;;;1.90;0.80;;;;;;;18.53;100.00;99890.31;4973540;28;20046;-83
2022/09/12 07:46:07;;;;;;;1.38;0.80;;;;;;;18.08;100.00;99850.81;4971175;28;20110;-83
2022/09/12 07:48:34;;;;;;;1.20;0.73;;;;;;;18.62;100.00;99882.53;4972464;28;20467;-83
2022/09/12 07:51:03;;;;;;;3.53;0.70;;;;;;;18.28;100.00;99888.03;4986821;28;20397;-83
2022/09/12 07:53:32;;;;;;;2.72;0.80;;;;;;;18.31;100.00;99890.41;4970659;28;20053;-82
2022/09/12 07:56:01;;;;;;;1.55;0.70;;;;;;;18.48;100.00;99881.88;4992783;28;20046;-82
2022/09/12 07:58:29;;;;;;;3.15;0.70;;;;;;;19.30;100.00;99891.72;4993353;28;20054;-83
2022/09/12 08:01:26;;;;;;;1.33;0.70;;;;;;;20.24;100.00;99919.72;4976404;28;20050;-83
2022/09/12 08:03:56;;;;;;;1.88;0.70;;;;;;;20.08;100.00;99885.72;4981556;28;20628;-83
2022/09/12 08:06:24;;;;;;;0.93;0.63;;;;;;;20.38;100.00;99905.13;4976107;28;20054;-83
2022/09/12 08:08:53;;;;;;;1.80;0.80;;;;;;;20.79;100.00;99924.44;4985768;28;20054;-83
2022/09/12 08:11:21;;;;;;;1.55;0.80;;;;;;;20.44;100.00;99891.28;4984981;28;20073;-84
2022/09/12 08:13:50;;;;;;;1.40;0.70;;;;;;;20.78;100.00;99933.41;4993558;28;20050;-83
2022/09/12 08:16:24;;;;;;;1.77;0.77;;;;;;;21.03;100.00;99940.78;4992534;28;20046;-83
2022/09/12 08:18:51;;;;;;;7.95;0.90;;;;;;;20.94;100.00;99912.34;4993999;28;20053;-84
2022/09/12 08:21:23;;;;;;;2.08;0.70;;;;;;;21.43;100.00;99910.31;4993159;28;20057;-85
2022/09/12 08:23:55;;;;;;;1.67;0.70;;;;;;;21.54;100.00;99935.13;4994151;28;20053;-84
2022/09/12 08:26:22;;;;;;;1.63;0.70;;;;;;;21.39;100.00;99913.44;4976394;28;20039;-85
2022/09/12 08:28:50;;;;;;;1.75;0.70;;;;;;;21.35;100.00;99912.06;4962311;28;20540;-84
2022/09/12 08:31:20;;;;;;;2.30;0.70;;;;;;;21.74;100.00;99962.47;4971274;28;20046;-84
2022/09/12 08:33:47;;;;;;;1.83;0.60;;;;;;;21.60;100.00;99940.69;4994204;28;20416;-84
2022/09/12 08:36:20;;;;;;;1.40;0.68;;;;;;;21.73;100.00;99912.88;4992532;28;20054;-84
2022/09/12 08:38:49;;;;;;;1.65;0.70;;;;;;;22.49;100.00;99932.94;4970211;28;20141;-85
2022/09/12 08:41:31;;;;;;;3.10;0.70;;;;;;;22.46;100.00;99960.75;4993436;28;20058;-85
2022/09/12 08:44:36;;;;;;;1.50;0.60;;;;;;;22.51;100.00;99962.97;4972023;28;20050;-85
2022/09/12 08:47:20;;;;;;;1.67;0.70;;;;;;;21.48;100.00;99893.94;4975096;28;20042;-84
2022/09/12 08:49:47;;;;;;;1.35;0.60;;;;;;;21.69;100.00;99938.97;4973860;28;20087;-86
2022/09/12 08:52:20;;;;;;;2.65;0.88;;;;;;;21.06;100.00;99934.31;4976431;28;20050;-85
2022/09/12 08:54:49;;;;;;;0.68;0.50;;;;;;;19.98;100.00;99956.63;4994562;28;20104;-84
2022/09/12 08:57:17;;;;;;;1.50;0.50;;;;;;;18.68;100.00;99966.84;4990164;28;20488;-84
2022/09/12 08:59:47;;;;;;;0.40;0.40;;;;;;;17.97;100.00;99970.00;4967766;28;20705;-83
2022/09/12 09:02:38;;;;;;;0.98;0.50;;;;;;;17.67;100.00;100007.69;4994296;28;20120;-84
2022/09/12 09:05:21;;;;;;;0.45;0.45;;;;;;;17.29;100.00;99946.25;4976626;28;20054;-84
2022/09/12 09:08:09;;;;;;;1.08;0.60;;;;;;;17.64;100.00;99982.31;4965362;28;20054;-83
2022/09/12 09:10:48;;;;;;;0.98;0.60;;;;;;;17.48;100.00;99956.22;4976538;28;20055;-83
2022/09/12 09:16:37;;;;;;;1.60;0.70;;;;;;;17.69;100.00;99989.88;4991425;28;20046;-84
2022/09/12 09:19:11;;;;;;;1.38;0.70;;;;;;;17.81;100.00;99996.84;4965201;28;20054;-86
2022/09/12 09:21:49;;;;;;;1.17;0.60;;;;;;;17.65;100.00;100000.75;4982018;28;20480;-86
2022/09/12 09:24:20;;;;;;;1.52;0.80;;;;;;;17.68;100.00;100006.75;4981614;28;20050;-86
2022/09/12 09:26:47;;;;;;;0.93;0.60;;;;;;;18.31;100.00;100005.22;4973215;28;20050;-86
2022/09/12 09:29:14;;;;;;;1.95;0.60;;;;;;;18.44;100.00;100013.00;4978654;28;20100;-86
2022/09/12 09:31:44;;;;;;;1.25;0.50;;;;;;;18.40;100.00;99947.97;4981064;28;20476;-86
2022/09/12 09:34:33;;;;;;;1.75;0.70;;;;;;;19.23;100.00;99966.66;4998805;28;20058;-87
2022/09/12 09:37:15;;;;;;;0.77;0.60;;;;;;;18.92;100.00;100001.13;4961793;28;20047;-87
2022/09/12 09:40:02;;;;;;;0.50;0.50;;;;;;;19.56;100.00;99996.56;4995688;28;20397;-85
2022/09/12 09:42:44;;;;;;;7.72;1.05;;;;;;;19.44;100.00;100015.25;4999063;28;20149;-87
2022/09/12 09:45:18;;;;;;;1.17;0.50;;;;;;;19.46;100.00;99965.53;4983320;28;20058;-87
2022/09/12 09:47:54;;;;;;;3.08;0.60;;;;;;;19.35;100.00;99979.72;4977806;28;20074;-87
2022/09/12 09:50:22;;;;;;;2.00;0.60;;;;;;;19.22;100.00;99943.75;4977653;28;20098;-87
2022/09/12 09:52:52;;;;;;;0.55;0.50;;;;;;;19.32;100.00;99979.16;4992830;28;20477;-87
2022/09/12 09:55:23;;;;;;;1.65;0.70;;;;;;;19.88;100.00;100005.25;4981571;28;20116;-86
2022/09/12 09:57:52;;;;;;;8.60;1.42;;;;;;;19.71;100.00;99997.91;4981527;28;20046;-86
2022/09/12 10:00:36;;;;;;;7.95;1.40;;;;;;;20.61;100.00;100015.59;4995977;28;20057;-87
2022/09/12 10:03:24;;;;;;;0.70;0.60;;;;;;;21.20;100.00;100029.66;4981675;28;20053;-87
2022/09/12 10:05:58;;;;;;;1.17;0.60;;;;;;;20.34;100.00;99964.91;4985755;28;20042;-87
2022/09/12 10:08:31;;;;;;;2.97;0.70;;;;;;;20.62;100.00;100011.94;4980622;28;20081;-87
2022/09/12 10:11:05;;;;;;;0.88;0.60;;;;;;;20.52;100.00;99994.28;4976948;28;20059;-88
2022/09/12 10:13:39;;;;;;;0.50;0.50;;;;;;;19.62;100.00;99885.38;4993453;28;20050;-87
2022/09/12 10:16:19;;;;;;;0.63;0.50;;;;;;;19.94;100.00;99992.38;4980785;28;20420;-88
2022/09/12 10:18:46;;;;;;;0.60;0.60;;;;;;;19.82;100.00;99957.16;4965256;28;20047;-87
2022/09/12 10:21:16;;;;;;;0.40;0.40;;;;;;;19.54;100.00;100012.63;4989227;28;20050;-88
2022/09/12 10:23:45;;;;;;;2.00;0.50;;;;;;;19.41;100.00;99985.50;4973760;28;20079;-87
2022/09/12 10:26:16;;;;;;;0.50;0.50;;;;;;;20.25;100.00;99966.56;4967869;28;20046;-87
2022/09/12 10:28:51;;;;;;;0.50;0.50;;;;;;;20.27;100.00;99970.78;4979666;28;20493;-87
2022/09/12 10:31:30;;;;;;;1.05;0.60;;;;;;;20.61;100.00;99962.41;4979747;28;20440;-87
2022/09/12 10:33:59;;;;;;;3.03;0.60;;;;;;;20.57;100.00;99960.13;4978270;28;20054;-88
2022/09/12 10:36:37;;;;;;;0.50;0.50;;;;;;;20.80;100.00;99976.66;4996556;28;20480;-87
2022/09/12 10:39:04;;;;;;;0.50;0.50;;;;;;;20.68;100.00;99973.28;4971553;28;20485;-86
2022/09/12 10:41:39;;;;;;;2.40;0.60;;;;;;;20.60;100.00;99938.56;4975531;28;20500;-88
2022/09/12 10:44:14;;;;;;;0.80;0.50;;;;;;;20.71;100.00;99983.66;4969692;28;20054;-87
2022/09/12 10:46:41;;;;;;;0.63;0.50;;;;;;;20.54;100.00;100014.44;4978264;28;20049;-87
2022/09/12 10:49:27;;;;;;;0.70;0.50;;;;;;;20.71;100.00;100012.91;4969358;28;20081;-87
2022/09/12 10:51:58;;;;;;;0.90;0.50;;;;;;;20.67;100.00;99979.63;4995569;28;20049;-86
2022/09/12 10:54:27;;;;;;;0.40;0.40;;;;;;;20.43;100.00;99948.09;4977943;28;20061;-87
2022/09/12 10:57:15;;;;;;;0.77;0.52;;;;;;;21.02;100.00;100008.28;4959533;28;20053;-85
2022/09/12 11:00:05;;;;;;;0.45;0.45;;;;;;;20.82;100.00;99942.75;4975839;28;20054;-88
2022/09/12 11:02:50;;;;;;;3.20;0.70;;;;;;;20.39;100.00;99975.94;4967108;28;20054;-87
2022/09/12 11:05:42;;;;;;;0.60;0.60;;;;;;;20.42;100.00;99991.63;4982028;28;20050;-86
2022/09/12 11:08:38;;;;;;;0.50;0.50;;;;;;;19.79;100.00;99971.53;4966915;28;20054;-88
2022/09/12 11:11:15;;;;;;;0.40;0.40;;;;;;;19.51;100.00;99939.41;4977940;28;20108;-87
2022/09/12 11:13:57;;;;;;;1.27;0.50;;;;;;;19.79;100.00;100011.34;4980653;28;20051;-87
2022/09/12 11:16:37;;;;;;;1.38;0.60;;;;;;;19.85;100.00;99992.25;4977676;28;20069;-86
2022/09/12 11:19:47;;;;;;;0.68;0.60;;;;;;;19.67;100.00;99977.88;4977728;28;20084;-87
2022/09/12 11:22:22;;;;;;;1.23;0.50;;;;;;;19.67;100.00;100015.06;4961506;28;20054;-87
2022/09/12 11:25:07;;;;;;;1.50;0.70;;;;;;;19.89;100.00;99985.66;4978281;28;20058;-86
2022/09/12 11:27:37;;;;;;;1.55;0.70;;;;;;;20.08;100.00;100013.28;4972133;28;20042;-87
2022/09/12 11:30:09;;;;;;;1.98;0.60;;;;;;;20.32;100.00;99986.28;4964216;28;20046;-87
2022/09/12 11:33:05;;;;;;;1.80;0.60;;;;;;;20.22;100.00;99956.19;4977493;28;20088;-87
2022/09/12 11:35:35;;;;;;;1.85;0.50;;;;;;;20.52;100.00;99944.59;4994816;28;20054;-86
2022/09/12 11:38:30;;;;;;;0.50;0.50;;;;;;;20.83;100.00;100000.31;4970481;28;20058;-86
2022/09/12 11:41:03;;;;;;;1.60;0.60;;;;;;;20.60;100.00;99962.50;4977099;28;20047;-87
2022/09/12 11:43:34;;;;;;;2.70;0.77;;;;;;;20.37;100.00;100005.31;4963449;28;20054;-87
2022/09/12 11:46:27;;;;;;;2.38;0.68;;;;;;;20.13;100.00;99933.13;4977707;28;20046;-87
2022/09/12 11:48:59;;;;;;;2.40;0.63;;;;;;;20.28;100.00;100004.34;4964596;28;20467;-86
2022/09/12 11:51:39;;;;;;;3.10;0.70;;;;;;;20.48;100.00;99969.78;4988228;28;20047;-88
2022/09/12 11:54:25;;;;;;;2.05;0.65;;;;;;;20.34;96.80;100010.91;4968623;28;20055;-87